UAL422 KRNO-KLAX
Flight info
| Callsign | UAL422 |
|---|---|
| Flight time | 1h 4m |
| Altitude | 37000 |
| Route | DARBI FRA REBRG IRNMN2 |
| Aircraft | B38M/M-SDE1FGHILORVWXY/HB1 |
Departure
| Time | 2026-04-26 14:43 |
|---|---|
| Airport | Reno Tahoe International Airport (KRNO) |
Arrival
| Time | 2026-04-26 15:47 |
|---|---|
| Airport | Los Angeles International Airport (KLAX) |
| Time | Latitude | Longitude | Altitude | Speed | Heading |
|---|---|---|---|---|---|
| 2026-04-26 14:21 | 39.50524 | -119.77215 | 4413 ft | 0 kts | 243° |
| 2026-04-26 14:30 | 39.50526 | -119.77211 | 4413 ft | 2 kts | 243° |
| 2026-04-26 14:31 | 39.50533 | -119.77192 | 4412 ft | 2 kts | 243° |
| 2026-04-26 14:31 | 39.50541 | -119.77174 | 4412 ft | 2 kts | 243° |
| 2026-04-26 14:31 | 39.50548 | -119.77155 | 4412 ft | 2 kts | 243° |
| 2026-04-26 14:31 | 39.50555 | -119.77144 | 4412 ft | 1 kts | 200° |
| 2026-04-26 14:32 | 39.50556 | -119.77144 | 4412 ft | 0 kts | 199° |
| 2026-04-26 14:35 | 39.50551 | -119.77146 | 4412 ft | 2 kts | 199° |
| 2026-04-26 14:35 | 39.50528 | -119.77152 | 4412 ft | 5 kts | 183° |
| 2026-04-26 14:35 | 39.50487 | -119.77152 | 4412 ft | 7 kts | 180° |
| 2026-04-26 14:35 | 39.50434 | -119.77152 | 4412 ft | 8 kts | 180° |
| 2026-04-26 14:36 | 39.50378 | -119.77151 | 4413 ft | 8 kts | 180° |
| 2026-04-26 14:36 | 39.50325 | -119.77151 | 4414 ft | 8 kts | 180° |
| 2026-04-26 14:36 | 39.50271 | -119.77151 | 4414 ft | 8 kts | 180° |
| 2026-04-26 14:36 | 39.50204 | -119.77152 | 4413 ft | 11 kts | 180° |
| 2026-04-26 14:37 | 39.50117 | -119.77153 | 4411 ft | 14 kts | 180° |
| 2026-04-26 14:37 | 39.50024 | -119.77152 | 4411 ft | 12 kts | 179° |
| 2026-04-26 14:37 | 39.49962 | -119.77152 | 4412 ft | 9 kts | 180° |
| 2026-04-26 14:37 | 39.49900 | -119.77152 | 4412 ft | 9 kts | 180° |
| 2026-04-26 14:38 | 39.49829 | -119.77152 | 4411 ft | 9 kts | 180° |
| 2026-04-26 14:38 | 39.49754 | -119.77153 | 4409 ft | 12 kts | 180° |
| 2026-04-26 14:38 | 39.49662 | -119.77153 | 4409 ft | 14 kts | 180° |
| 2026-04-26 14:38 | 39.49567 | -119.77154 | 4411 ft | 13 kts | 180° |
| 2026-04-26 14:39 | 39.49471 | -119.77155 | 4411 ft | 14 kts | 179° |
| 2026-04-26 14:39 | 39.49364 | -119.77154 | 4409 ft | 15 kts | 180° |
| 2026-04-26 14:39 | 39.49263 | -119.77154 | 4409 ft | 14 kts | 180° |
| 2026-04-26 14:39 | 39.49166 | -119.77154 | 4412 ft | 14 kts | 180° |
| 2026-04-26 14:40 | 39.49068 | -119.77154 | 4411 ft | 14 kts | 180° |
| 2026-04-26 14:40 | 39.48969 | -119.77154 | 4409 ft | 15 kts | 176° |
| 2026-04-26 14:40 | 39.48925 | -119.77077 | 4407 ft | 6 kts | 89° |
| 2026-04-26 14:40 | 39.48925 | -119.77061 | 4407 ft | 2 kts | 89° |
| 2026-04-26 14:41 | 39.48926 | -119.77033 | 4407 ft | 4 kts | 89° |
| 2026-04-26 14:41 | 39.48927 | -119.76979 | 4407 ft | 9 kts | 89° |
| 2026-04-26 14:41 | 39.48927 | -119.76881 | 4407 ft | 12 kts | 91° |
| 2026-04-26 14:41 | 39.48926 | -119.76768 | 4407 ft | 13 kts | 91° |
| 2026-04-26 14:42 | 39.48949 | -119.76683 | 4407 ft | 10 kts | 16° |
| 2026-04-26 14:42 | 39.49065 | -119.76681 | 4410 ft | 40 kts | 0° |
| 2026-04-26 14:42 | 39.49582 | -119.76679 | 4417 ft | 107 kts | 0° |
| 2026-04-26 14:42 | 39.50532 | -119.76677 | 4408 ft | 162 kts | 0° |
| 2026-04-26 14:43 | 39.51708 | -119.76651 | 4932 ft | 175 kts | 0° |
| 2026-04-26 14:43 | 39.52911 | -119.76374 | 5241 ft | 176 kts | 14° |
| 2026-04-26 14:43 | 39.54162 | -119.75886 | 5729 ft | 199 kts | 14° |
| 2026-04-26 14:43 | 39.55556 | -119.75341 | 6307 ft | 218 kts | 13° |
| 2026-04-26 14:44 | 39.57033 | -119.74630 | 6916 ft | 238 kts | 27° |
| 2026-04-26 14:44 | 39.58392 | -119.73213 | 7420 ft | 265 kts | 46° |
| 2026-04-26 14:44 | 39.59417 | -119.71158 | 8162 ft | 278 kts | 67° |
| 2026-04-26 14:44 | 39.59661 | -119.68669 | 8904 ft | 283 kts | 95° |
| 2026-04-26 14:45 | 39.59327 | -119.66129 | 9508 ft | 288 kts | 99° |
| 2026-04-26 14:45 | 39.59072 | -119.64432 | 9875 ft | 290 kts | 100° |
| 2026-04-26 14:45 | 39.58165 | -119.61160 | 10522 ft | 292 kts | 128° |
| 2026-04-26 14:45 | 39.56615 | -119.59502 | 11034 ft | 294 kts | 157° |
| 2026-04-26 14:46 | 39.54639 | -119.58879 | 11607 ft | 295 kts | 182° |
| 2026-04-26 14:46 | 39.52593 | -119.59198 | 12266 ft | 299 kts | 189° |
| 2026-04-26 14:46 | 39.50471 | -119.59448 | 12757 ft | 318 kts | 187° |
| 2026-04-26 14:46 | 39.48195 | -119.59673 | 12978 ft | 337 kts | 187° |
| 2026-04-26 14:47 | 39.45804 | -119.59914 | 13213 ft | 350 kts | 187° |
| 2026-04-26 14:47 | 39.43354 | -119.60173 | 13478 ft | 357 kts | 187° |
| 2026-04-26 14:47 | 39.40869 | -119.60444 | 13734 ft | 361 kts | 187° |
| 2026-04-26 14:47 | 39.38356 | -119.60726 | 13915 ft | 363 kts | 187° |
| 2026-04-26 14:48 | 39.35836 | -119.61015 | 13979 ft | 363 kts | 187° |
| 2026-04-26 14:48 | 39.33348 | -119.61304 | 13992 ft | 363 kts | 187° |
| 2026-04-26 14:48 | 39.30833 | -119.61595 | 14003 ft | 363 kts | 187° |
| 2026-04-26 14:48 | 39.28285 | -119.61891 | 14036 ft | 363 kts | 187° |
| 2026-04-26 14:49 | 39.25767 | -119.62184 | 14244 ft | 364 kts | 187° |
| 2026-04-26 14:49 | 39.23250 | -119.62476 | 15048 ft | 360 kts | 187° |
| 2026-04-26 14:49 | 39.20768 | -119.62776 | 16021 ft | 359 kts | 188° |
| 2026-04-26 14:49 | 39.18260 | -119.63068 | 16744 ft | 364 kts | 188° |
| 2026-04-26 14:50 | 39.15728 | -119.63360 | 17530 ft | 367 kts | 188° |
| 2026-04-26 14:50 | 39.13168 | -119.63654 | 18257 ft | 371 kts | 188° |
| 2026-04-26 14:50 | 39.10588 | -119.63949 | 18898 ft | 374 kts | 188° |
| 2026-04-26 14:50 | 39.07980 | -119.64248 | 19520 ft | 377 kts | 188° |
| 2026-04-26 14:51 | 39.05363 | -119.64548 | 20165 ft | 380 kts | 188° |
| 2026-04-26 14:51 | 39.02720 | -119.64852 | 20768 ft | 383 kts | 188° |
| 2026-04-26 14:51 | 39.00047 | -119.65159 | 21371 ft | 387 kts | 188° |
| 2026-04-26 14:51 | 38.97361 | -119.65466 | 21998 ft | 390 kts | 188° |
| 2026-04-26 14:52 | 38.94642 | -119.65778 | 22588 ft | 393 kts | 188° |
| 2026-04-26 14:52 | 38.91914 | -119.66091 | 23180 ft | 396 kts | 188° |
| 2026-04-26 14:52 | 38.89154 | -119.66407 | 23698 ft | 399 kts | 188° |
| 2026-04-26 14:52 | 38.86378 | -119.66725 | 24175 ft | 402 kts | 188° |
| 2026-04-26 14:53 | 38.83618 | -119.67040 | 24649 ft | 404 kts | 188° |
| 2026-04-26 14:53 | 38.80799 | -119.67363 | 25123 ft | 407 kts | 188° |
| 2026-04-26 14:53 | 38.77971 | -119.67687 | 25575 ft | 410 kts | 188° |
| 2026-04-26 14:53 | 38.75119 | -119.68013 | 26039 ft | 412 kts | 188° |
| 2026-04-26 14:54 | 38.72258 | -119.68339 | 26475 ft | 415 kts | 189° |
| 2026-04-26 14:54 | 38.69369 | -119.68670 | 26923 ft | 417 kts | 189° |
| 2026-04-26 14:54 | 38.66470 | -119.69001 | 27343 ft | 420 kts | 189° |
| 2026-04-26 14:54 | 38.63553 | -119.69333 | 27775 ft | 423 kts | 189° |
| 2026-04-26 14:55 | 38.60610 | -119.69669 | 28168 ft | 426 kts | 189° |
| 2026-04-26 14:55 | 38.57649 | -119.70006 | 28554 ft | 429 kts | 189° |
| 2026-04-26 14:55 | 38.54674 | -119.70346 | 29006 ft | 431 kts | 189° |
| 2026-04-26 14:55 | 38.51682 | -119.70686 | 29420 ft | 434 kts | 189° |
| 2026-04-26 14:56 | 38.48659 | -119.71030 | 29808 ft | 436 kts | 189° |
| 2026-04-26 14:56 | 38.45631 | -119.71374 | 30182 ft | 439 kts | 189° |
| 2026-04-26 14:56 | 38.42587 | -119.71720 | 30507 ft | 441 kts | 189° |
| 2026-04-26 14:56 | 38.39518 | -119.72068 | 30769 ft | 444 kts | 189° |
| 2026-04-26 14:57 | 38.36433 | -119.72418 | 31087 ft | 447 kts | 189° |
| 2026-04-26 14:57 | 38.33325 | -119.72771 | 31429 ft | 449 kts | 189° |
| 2026-04-26 14:57 | 38.30205 | -119.73096 | 31739 ft | 452 kts | 186° |
| 2026-04-26 14:57 | 38.27051 | -119.72826 | 32176 ft | 456 kts | 178° |
| 2026-04-26 14:58 | 38.23895 | -119.72449 | 32620 ft | 455 kts | 179° |
| 2026-04-26 14:58 | 38.20771 | -119.72097 | 32822 ft | 457 kts | 179° |
| 2026-04-26 14:58 | 38.17571 | -119.71729 | 32863 ft | 456 kts | 179° |
| 2026-04-26 14:59 | 38.11264 | -119.71003 | 32849 ft | 454 kts | 179° |
| 2026-04-26 14:59 | 38.04967 | -119.70278 | 32854 ft | 454 kts | 179° |
| 2026-04-26 15:00 | 37.98673 | -119.69554 | 32850 ft | 455 kts | 179° |
| 2026-04-26 15:00 | 37.92362 | -119.68831 | 32890 ft | 455 kts | 179° |
| 2026-04-26 15:01 | 37.86055 | -119.68108 | 32908 ft | 455 kts | 179° |
| 2026-04-26 15:01 | 37.79787 | -119.67392 | 32881 ft | 455 kts | 179° |
| 2026-04-26 15:02 | 37.73468 | -119.66671 | 32908 ft | 456 kts | 179° |
| 2026-04-26 15:02 | 37.67150 | -119.65951 | 32922 ft | 456 kts | 179° |
| 2026-04-26 15:03 | 37.60831 | -119.65232 | 32905 ft | 456 kts | 179° |
| 2026-04-26 15:03 | 37.54496 | -119.64513 | 32928 ft | 458 kts | 179° |
| 2026-04-26 15:04 | 37.48162 | -119.63795 | 32933 ft | 457 kts | 179° |
| 2026-04-26 15:04 | 37.41818 | -119.63077 | 32938 ft | 457 kts | 179° |
| 2026-04-26 15:05 | 37.35472 | -119.62360 | 32958 ft | 459 kts | 179° |
| 2026-04-26 15:05 | 37.29112 | -119.61643 | 32941 ft | 458 kts | 179° |
| 2026-04-26 15:06 | 37.22752 | -119.60927 | 32940 ft | 459 kts | 179° |
| 2026-04-26 15:06 | 37.16393 | -119.60212 | 32946 ft | 459 kts | 179° |
| 2026-04-26 15:07 | 37.06848 | -119.59621 | 32969 ft | 456 kts | 185° |
| 2026-04-26 15:07 | 37.00508 | -119.59718 | 32965 ft | 456 kts | 185° |
| 2026-04-26 15:08 | 36.94153 | -119.59828 | 32985 ft | 457 kts | 185° |
| 2026-04-26 15:08 | 36.87843 | -119.59937 | 32981 ft | 456 kts | 185° |
| 2026-04-26 15:09 | 36.81485 | -119.60047 | 32990 ft | 457 kts | 185° |
| 2026-04-26 15:09 | 36.75130 | -119.60157 | 32988 ft | 457 kts | 185° |
| 2026-04-26 15:10 | 36.70882 | -119.60230 | 32987 ft | 457 kts | 185° |
| 2026-04-26 15:10 | 36.62425 | -119.60376 | 32988 ft | 457 kts | 185° |
| 2026-04-26 15:11 | 36.56064 | -119.60485 | 32973 ft | 457 kts | 185° |
| 2026-04-26 15:11 | 36.49716 | -119.60594 | 32990 ft | 457 kts | 185° |
| 2026-04-26 15:12 | 36.43363 | -119.60703 | 32995 ft | 456 kts | 185° |
| 2026-04-26 15:12 | 36.37047 | -119.60811 | 32998 ft | 456 kts | 185° |
| 2026-04-26 15:13 | 36.31733 | -119.60902 | 32996 ft | 456 kts | 185° |
| 2026-04-26 15:13 | 36.25389 | -119.61010 | 32996 ft | 456 kts | 185° |
| 2026-04-26 15:14 | 36.19047 | -119.61118 | 32998 ft | 456 kts | 185° |
| 2026-04-26 15:14 | 36.12704 | -119.61226 | 32969 ft | 455 kts | 185° |
| 2026-04-26 15:15 | 36.06377 | -119.61333 | 32985 ft | 455 kts | 185° |
| 2026-04-26 15:15 | 36.00045 | -119.61443 | 32984 ft | 454 kts | 186° |
| 2026-04-26 15:16 | 35.96955 | -119.61991 | 32966 ft | 445 kts | 200° |
| 2026-04-26 15:16 | 35.93997 | -119.63110 | 32970 ft | 446 kts | 200° |
| 2026-04-26 15:16 | 35.88051 | -119.65277 | 32977 ft | 446 kts | 200° |
| 2026-04-26 15:17 | 35.83122 | -119.67118 | 32976 ft | 445 kts | 201° |
| 2026-04-26 15:17 | 35.76234 | -119.69699 | 32975 ft | 445 kts | 201° |
| 2026-04-26 15:18 | 35.70314 | -119.71914 | 32977 ft | 445 kts | 201° |
| 2026-04-26 15:18 | 35.64298 | -119.73754 | 32993 ft | 447 kts | 194° |
| 2026-04-26 15:19 | 35.58188 | -119.75204 | 32978 ft | 447 kts | 195° |
| 2026-04-26 15:19 | 35.52091 | -119.76711 | 32984 ft | 447 kts | 195° |
| 2026-04-26 15:20 | 35.45998 | -119.78223 | 32985 ft | 446 kts | 195° |
| 2026-04-26 15:20 | 35.39913 | -119.79731 | 32974 ft | 445 kts | 195° |
| 2026-04-26 15:21 | 35.33842 | -119.81213 | 32981 ft | 446 kts | 192° |
| 2026-04-26 15:21 | 35.30720 | -119.81302 | 32979 ft | 454 kts | 176° |
| 2026-04-26 15:21 | 35.27638 | -119.80351 | 32978 ft | 463 kts | 161° |
| 2026-04-26 15:22 | 35.24805 | -119.78425 | 32993 ft | 471 kts | 148° |
| 2026-04-26 15:22 | 35.22162 | -119.76036 | 32953 ft | 473 kts | 148° |
| 2026-04-26 15:22 | 35.16902 | -119.71208 | 32993 ft | 473 kts | 147° |
| 2026-04-26 15:23 | 35.11668 | -119.66339 | 32976 ft | 473 kts | 147° |
| 2026-04-26 15:23 | 35.09048 | -119.63899 | 32812 ft | 471 kts | 147° |
| 2026-04-26 15:23 | 35.06477 | -119.61506 | 32409 ft | 461 kts | 146° |
| 2026-04-26 15:24 | 35.03936 | -119.59142 | 31821 ft | 458 kts | 147° |
| 2026-04-26 15:24 | 35.01402 | -119.56788 | 31205 ft | 457 kts | 146° |
| 2026-04-26 15:24 | 34.98881 | -119.54448 | 30594 ft | 455 kts | 146° |
| 2026-04-26 15:24 | 34.96365 | -119.52114 | 30016 ft | 453 kts | 146° |
| 2026-04-26 15:25 | 34.93861 | -119.49794 | 29333 ft | 451 kts | 146° |
| 2026-04-26 15:25 | 34.92206 | -119.48265 | 28926 ft | 449 kts | 146° |
| 2026-04-26 15:25 | 34.88865 | -119.45268 | 28279 ft | 442 kts | 146° |
| 2026-04-26 15:25 | 34.86415 | -119.43072 | 27885 ft | 434 kts | 147° |
| 2026-04-26 15:26 | 34.83977 | -119.40886 | 27401 ft | 436 kts | 147° |
| 2026-04-26 15:26 | 34.81536 | -119.38698 | 26952 ft | 435 kts | 147° |
| 2026-04-26 15:26 | 34.79110 | -119.36524 | 26502 ft | 432 kts | 147° |
| 2026-04-26 15:26 | 34.76691 | -119.34359 | 26040 ft | 430 kts | 147° |
| 2026-04-26 15:27 | 34.74284 | -119.32229 | 25557 ft | 428 kts | 147° |
| 2026-04-26 15:27 | 34.71877 | -119.30125 | 25093 ft | 424 kts | 147° |
| 2026-04-26 15:27 | 34.69492 | -119.28036 | 24673 ft | 420 kts | 147° |
| 2026-04-26 15:27 | 34.67125 | -119.25964 | 24235 ft | 418 kts | 147° |
| 2026-04-26 15:28 | 34.64770 | -119.23915 | 23788 ft | 415 kts | 147° |
| 2026-04-26 15:28 | 34.62415 | -119.21883 | 23258 ft | 415 kts | 147° |
| 2026-04-26 15:28 | 34.60071 | -119.19859 | 22791 ft | 411 kts | 147° |
| 2026-04-26 15:28 | 34.57755 | -119.17861 | 22356 ft | 407 kts | 147° |
| 2026-04-26 15:29 | 34.55465 | -119.15851 | 21887 ft | 405 kts | 146° |
| 2026-04-26 15:29 | 34.53191 | -119.13835 | 21399 ft | 403 kts | 146° |
| 2026-04-26 15:29 | 34.48682 | -119.09850 | 20513 ft | 400 kts | 147° |
| 2026-04-26 15:30 | 34.44201 | -119.05906 | 19526 ft | 399 kts | 147° |
| 2026-04-26 15:30 | 34.41952 | -119.03958 | 18879 ft | 404 kts | 147° |
| 2026-04-26 15:30 | 34.39636 | -119.01948 | 18295 ft | 406 kts | 147° |
| 2026-04-26 15:31 | 34.37368 | -118.99980 | 17629 ft | 408 kts | 147° |
| 2026-04-26 15:31 | 34.32780 | -118.95922 | 16471 ft | 408 kts | 146° |
| 2026-04-26 15:31 | 34.30524 | -118.93876 | 16009 ft | 404 kts | 146° |
| 2026-04-26 15:32 | 34.26783 | -118.90501 | 15268 ft | 398 kts | 146° |
| 2026-04-26 15:32 | 34.23867 | -118.87832 | 14597 ft | 397 kts | 145° |
| 2026-04-26 15:32 | 34.21666 | -118.85810 | 14093 ft | 395 kts | 145° |
| 2026-04-26 15:33 | 34.19501 | -118.83824 | 13619 ft | 388 kts | 145° |
| 2026-04-26 15:33 | 34.17365 | -118.81866 | 13104 ft | 382 kts | 145° |
| 2026-04-26 15:33 | 34.15353 | -118.79813 | 12615 ft | 375 kts | 139° |
| 2026-04-26 15:33 | 34.13441 | -118.77700 | 12252 ft | 370 kts | 140° |
| 2026-04-26 15:34 | 34.11542 | -118.75630 | 11887 ft | 366 kts | 140° |
| 2026-04-26 15:34 | 34.09659 | -118.73589 | 11534 ft | 362 kts | 140° |
| 2026-04-26 15:34 | 34.07793 | -118.71574 | 11201 ft | 359 kts | 140° |
| 2026-04-26 15:34 | 34.05934 | -118.69576 | 10799 ft | 357 kts | 140° |
| 2026-04-26 15:35 | 34.04103 | -118.67565 | 10411 ft | 356 kts | 134° |
| 2026-04-26 15:35 | 34.02808 | -118.65042 | 9951 ft | 356 kts | 107° |
| 2026-04-26 15:35 | 34.02465 | -118.62127 | 9572 ft | 350 kts | 92° |
| 2026-04-26 15:35 | 34.02251 | -118.59235 | 9264 ft | 341 kts | 94° |
| 2026-04-26 15:36 | 34.02011 | -118.56463 | 9199 ft | 324 kts | 95° |
| 2026-04-26 15:36 | 34.01775 | -118.53830 | 9162 ft | 308 kts | 95° |
| 2026-04-26 15:36 | 34.01542 | -118.51306 | 8996 ft | 301 kts | 95° |
| 2026-04-26 15:36 | 34.01309 | -118.48816 | 8714 ft | 298 kts | 95° |
| 2026-04-26 15:37 | 34.01083 | -118.46340 | 8385 ft | 296 kts | 92° |
| 2026-04-26 15:37 | 34.01290 | -118.43882 | 8070 ft | 290 kts | 75° |
| 2026-04-26 15:37 | 34.01722 | -118.41513 | 7795 ft | 288 kts | 75° |
| 2026-04-26 15:37 | 34.02137 | -118.39161 | 7519 ft | 287 kts | 76° |
| 2026-04-26 15:38 | 34.02548 | -118.36801 | 7245 ft | 288 kts | 76° |
| 2026-04-26 15:38 | 34.02862 | -118.34452 | 6977 ft | 290 kts | 82° |
| 2026-04-26 15:38 | 34.03108 | -118.32040 | 6732 ft | 289 kts | 82° |
| 2026-04-26 15:38 | 34.03359 | -118.29662 | 6518 ft | 283 kts | 81° |
| 2026-04-26 15:39 | 34.03612 | -118.27340 | 6361 ft | 275 kts | 81° |
| 2026-04-26 15:39 | 34.03859 | -118.25087 | 6174 ft | 268 kts | 81° |
| 2026-04-26 15:39 | 34.04098 | -118.22889 | 5972 ft | 262 kts | 81° |
| 2026-04-26 15:39 | 34.04259 | -118.21425 | 5790 ft | 261 kts | 81° |
| 2026-04-26 15:40 | 34.04573 | -118.18554 | 5370 ft | 260 kts | 81° |
| 2026-04-26 15:40 | 34.04809 | -118.16402 | 5068 ft | 259 kts | 82° |
| 2026-04-26 15:40 | 34.05023 | -118.14247 | 4772 ft | 259 kts | 88° |
| 2026-04-26 15:40 | 34.04574 | -118.12173 | 4374 ft | 258 kts | 126° |
| 2026-04-26 15:41 | 34.03239 | -118.10842 | 4080 ft | 247 kts | 162° |
| 2026-04-26 15:41 | 34.01609 | -118.10312 | 3885 ft | 239 kts | 171° |
| 2026-04-26 15:41 | 33.99998 | -118.09916 | 3686 ft | 234 kts | 177° |
| 2026-04-26 15:41 | 33.98439 | -118.10172 | 3619 ft | 224 kts | 207° |
| 2026-04-26 15:42 | 33.97231 | -118.11299 | 3611 ft | 219 kts | 235° |
| 2026-04-26 15:42 | 33.96519 | -118.12902 | 3616 ft | 218 kts | 252° |
| 2026-04-26 15:42 | 33.96169 | -118.14669 | 3626 ft | 212 kts | 262° |
| 2026-04-26 15:42 | 33.95983 | -118.16367 | 3618 ft | 199 kts | 263° |
| 2026-04-26 15:43 | 33.95817 | -118.18019 | 3410 ft | 197 kts | 263° |
| 2026-04-26 15:43 | 33.95651 | -118.19651 | 3164 ft | 196 kts | 263° |
| 2026-04-26 15:43 | 33.95314 | -118.22934 | 2651 ft | 196 kts | 263° |
| 2026-04-26 15:44 | 33.95152 | -118.24514 | 2404 ft | 183 kts | 263° |
| 2026-04-26 15:44 | 33.94872 | -118.27245 | 1965 ft | 145 kts | 262° |
| 2026-04-26 15:44 | 33.94748 | -118.28446 | 1774 ft | 144 kts | 263° |
| 2026-04-26 15:45 | 33.94505 | -118.30810 | 1375 ft | 144 kts | 263° |
| 2026-04-26 15:45 | 33.94382 | -118.32005 | 1189 ft | 144 kts | 264° |
| 2026-04-26 15:46 | 33.94139 | -118.34362 | 771 ft | 141 kts | 264° |
| 2026-04-26 15:46 | 33.94019 | -118.35542 | 580 ft | 141 kts | 263° |
| 2026-04-26 15:46 | 33.93901 | -118.36669 | 397 ft | 141 kts | 264° |
| 2026-04-26 15:46 | 33.93859 | -118.37060 | 351 ft | 139 kts | 264° |
| 2026-04-26 15:47 | 33.93664 | -118.38954 | 109 ft | 134 kts | 263° |
| 2026-04-26 15:47 | 33.93535 | -118.40420 | 97 ft | 36 kts | 281° |
| 2026-04-26 15:47 | 33.93592 | -118.40664 | 96 ft | 30 kts | 280° |
| 2026-04-26 15:48 | 33.93617 | -118.40864 | 98 ft | 15 kts | 312° |
| 2026-04-26 15:48 | 33.93685 | -118.40900 | 98 ft | 9 kts | 353° |
| 2026-04-26 15:48 | 33.93767 | -118.40904 | 97 ft | 14 kts | 22° |
| 2026-04-26 15:48 | 33.93798 | -118.40790 | 98 ft | 16 kts | 83° |
| 2026-04-26 15:49 | 33.93813 | -118.40648 | 97 ft | 18 kts | 83° |
| 2026-04-26 15:49 | 33.93830 | -118.40485 | 98 ft | 21 kts | 83° |
| 2026-04-26 15:49 | 33.93848 | -118.40307 | 98 ft | 22 kts | 83° |
| 2026-04-26 15:49 | 33.93866 | -118.40126 | 100 ft | 18 kts | 83° |
| 2026-04-26 15:50 | 33.93879 | -118.39989 | 99 ft | 15 kts | 83° |
| 2026-04-26 15:50 | 33.93895 | -118.39848 | 98 ft | 18 kts | 75° |
| 2026-04-26 15:50 | 33.93967 | -118.39813 | 98 ft | 10 kts | 349° |
| 2026-04-26 15:50 | 33.94047 | -118.39829 | 96 ft | 13 kts | 354° |
| 2026-04-26 15:51 | 33.94129 | -118.39835 | 95 ft | 12 kts | 354° |
| 2026-04-26 15:51 | 33.94173 | -118.39840 | 96 ft | 9 kts | 354° |
| 2026-04-26 15:51 | 33.94231 | -118.39839 | 95 ft | 1 kts | 42° |
| 2026-04-26 15:51 | 33.94238 | -118.39821 | 98 ft | 4 kts | 73° |
| 2026-04-26 15:52 | 33.94241 | -118.39787 | 98 ft | 3 kts | 83° |
| 2026-04-26 15:52 | 33.94242 | -118.39787 | 98 ft | 0 kts | 83° |